Grand Princess — ZCBU5 — position and weather

sailwx.info

Track history (hours):
 
Tides and Currents Weather Stations Pressure Air Temp Water Temp Dewpoint Dewpoint Depression Visibility Wind Speed Wind Dir Waves Ship Positions

Grand Princess

Operator: Princess Cruises

Last reported at 2017-Mar-30 13:33 UTC. Time now 2017-Mar-30 14:39 UTC.
Position N 31°48' W 116°44'.

Length 289.5 m; beam 36 m; draft 8.5 m.

Type: Ship. MMSI: 310327000.

Date/timePositionNaut miles runAvg speedWind from/ knotsBaromVisibWave heightAir tempDewpointWater temp
2017-Mar-30 13:33N 31°48' W 116°44'1110.7
2017-Mar-30 12:33N 31°44' W 116°55'10 9.7
2017-Mar-30 11:33N 31°40' W 117°06'10 9.7
2017-Mar-30 10:33N 31°38' W 117°17'10 9.9
2017-Mar-30 09:33N 31°38' W 117°29'9 9.4
2017-Mar-30 08:33N 31°38' W 117°40'5 5.4
2017-Mar-30 07:33N 31°43' W 117°41'9 9.2
2017-Mar-30 06:33N 31°51' W 117°36'10 9.7
2017-Mar-30 05:33N 32°00' W 117°32'9 9.0
2017-Mar-30 04:33N 32°09' W 117°30'10 9.5
2017-Mar-30 03:33N 32°18' W 117°26'1010.3
2017-Mar-30 02:33N 32°27' W 117°20'1010.4
2017-Mar-30 01:33N 32°36' W 117°14'7 7.3
2017-Mar-30 00:33N 32°43' W 117°11'0 0.3
2017-Mar-29 23:29N 32°43' W 117°10'0 0.0
2017-Mar-29 18:27N 32°43' W 117°10'0 0.0
2017-Mar-29 15:32N 32°43' W 117°10'0 0.0
2017-Mar-29 14:33N 32°43' W 117°10'6 6.0
2017-Mar-29 13:34N 32°38' W 117°14'1110.9
2017-Mar-29 12:34N 32°29' W 117°21'1110.6
2017-Mar-29 11:34N 32°25' W 117°32'1110.9
2017-Mar-29 10:33N 32°26' W 117°45'1211.6
2017-Mar-29 09:34N 32°37' W 117°49'1212.0
2017-Mar-29 08:34N 32°48' W 117°54'1212.0
2017-Mar-29 07:34N 32°60' W 117°58'1111.0
2017-Mar-29 06:34N 33°10' W 118°03'1111.2
2017-Mar-29 05:34N 33°21' W 118°07'1111.2
2017-Mar-29 04:33N 33°31' W 118°12'1110.9
2017-Mar-29 03:34N 33°42' W 118°11'3 2.9
2017-Mar-29 02:32N 33°45' W 118°11'0 0.0
2017-Mar-29 01:31N 33°45' W 118°11'0 0.0
2017-Mar-29 00:31N 33°45' W 118°11'0 0.0
2017-Mar-28 23:33N 33°45' W 118°11'0 0.0
2017-Mar-28 22:33N 33°45' W 118°11'0 0.0
2017-Mar-28 21:29N 33°45' W 118°11'0 0.0
2017-Mar-28 20:32N 33°45' W 118°11'0 0.0
2017-Mar-28 19:32N 33°45' W 118°11'0 0.0
2017-Mar-28 18:28N 33°45' W 118°11'0 0.0
2017-Mar-28 17:31N 33°45' W 118°11'0 0.0
2017-Mar-28 16:33N 33°45' W 118°11'0 0.0
2017-Mar-28 15:33N 33°45' W 118°11'0 0.0
2017-Mar-28 14:32N 33°45' W 118°11'2 1.6
2017-Mar-28 13:33N 33°43' W 118°11'8 8.1
2017-Mar-28 12:33N 33°36' W 118°16'1010.4
2017-Mar-28 11:33N 33°39' W 118°28'1110.7
2017-Mar-28 10:33N 33°44' W 118°40'9 9.4
2017-Mar-28 09:33N 33°39' W 118°50'1010.3
2017-Mar-28 08:33N 33°43' W 119°01'10 9.7
2017-Mar-28 07:33N 33°47' W 119°11'8 8.4
2017-Mar-28 06:33N 33°56' W 119°09'8 8.3
2017-Mar-28 05:33N 34°02' W 119°16'10 9.7
2017-Mar-28 04:33N 34°05' W 119°27'1110.1
2017-Mar-28 03:29N 34°08' W 119°40'9 9.5
2017-Mar-28 02:33N 34°15' W 119°46'9 8.6
2017-Mar-28 01:32N 34°23' W 119°41'0 0.0
2017-Mar-27 13:22N 34°23' W 119°41'910.5
2017-Mar-27 12:30N 34°15' W 119°48'11 9.6
2017-Mar-27 11:23N 34°13' W 120°00'1011.9
2017-Mar-27 10:30N 34°15' W 120°12'1211.9
2017-Mar-27 09:31N 34°18' W 120°26'1111.9
2017-Mar-27 08:33N 34°21' W 120°40'1110.8
2017-Mar-27 07:33N 34°24' W 120°52'1110.7
2017-Mar-27 06:33N 34°26' W 121°05'1110.7
2017-Mar-27 05:33N 34°28' W 121°18'1010.5
2017-Mar-27 04:33N 34°30' W 121°30'1110.6
2017-Mar-27 03:33N 34°32' W 121°43'1110.5
2017-Mar-27 02:33N 34°34' W 121°56'5 9.6
2017-Mar-27 02:00N 34°30' W 122°00'1021.7 300 / 91023.710.8 13.011.115.0
2017-Mar-27 01:33N 34°37' W 122°09'1110.9
2017-Mar-27 00:33N 34°38' W 122°22'67 8.4
2017-Mar-26 16:33N 35°33' W 123°08'1110.9
2017-Mar-26 15:33N 35°44' W 123°08'1110.9
2017-Mar-26 14:33N 35°55' W 123°08'2 3.4
2017-Mar-26 14:00N 35°54' W 123°06'1126.2 270 / 101022.710.8 13.010.114.0
2017-Mar-26 13:33N 36°05' W 123°08'3210.6
2017-Mar-26 10:33N 36°37' W 123°08'1010.0
2017-Mar-26 09:33N 36°47' W 123°08'1110.0
2017-Mar-26 08:30N 36°58' W 123°09'1010.6
2017-Mar-26 07:32N 37°08' W 123°09'1110.7
2017-Mar-26 06:28N 37°19' W 123°09'1010.6
2017-Mar-26 05:33N 37°29' W 123°09'1010.5
2017-Mar-26 04:33N 37°36' W 122°59'1010.4
2017-Mar-26 03:33N 37°42' W 122°49'1111.3
2017-Mar-26 02:34N 37°47' W 122°36'9 8.7
2017-Mar-26 01:30N 37°48' W 122°24'0 0.0
2017-Mar-26 00:32N 37°48' W 122°24'0 0.0
2017-Mar-25 23:32N 37°48' W 122°24'0 0.0
2017-Mar-25 22:32N 37°48' W 122°24'0 0.0
2017-Mar-25 21:31N 37°48' W 122°24'0 0.0
2017-Mar-25 20:31N 37°48' W 122°24'0 0.0
2017-Mar-25 19:33N 37°48' W 122°24'0 0.0
2017-Mar-25 18:33N 37°48' W 122°24'0 0.0
2017-Mar-25 17:32N 37°48' W 122°24'0 0.0
2017-Mar-25 16:32N 37°48' W 122°24'0 0.0
2017-Mar-25 15:31N 37°48' W 122°24'0 0.0
2017-Mar-25 14:31N 37°48' W 122°24'0 0.0
2017-Mar-25 13:34N 37°48' W 122°24'7 6.7
2017-Mar-25 12:34N 37°47' W 122°32'1110.5
2017-Mar-25 11:33N 37°39' W 122°40'1313.2
2017-Mar-25 10:34N 37°26' W 122°40'1312.8
2017-Mar-25 09:34N 37°13' W 122°37'1312.9
2017-Mar-25 08:33N 37°01' W 122°30'1313.0
2017-Mar-25 07:33N 36°50' W 122°23'1313.1
2017-Mar-25 06:33N 36°37' W 122°17'1212.3
2017-Mar-25 05:33N 36°26' W 122°10'1212.2
2017-Mar-25 04:33N 36°15' W 122°04'1312.5
2017-Mar-25 03:33N 36°04' W 121°58'1312.7
2017-Mar-25 02:33N 35°52' W 121°51'5 8.8
2017-Mar-25 02:00N 35°48' W 121°48'817.2 130 / 151025.4 5.4 13.012.413.0
2017-Mar-25 01:33N 35°41' W 121°45'1212.2
2017-Mar-25 00:33N 35°30' W 121°38'1212.2
2017-Mar-24 23:33N 35°19' W 121°32'1212.4
2017-Mar-24 22:33N 35°08' W 121°25'1312.6
2017-Mar-24 21:33N 34°57' W 121°17'1312.8
2017-Mar-24 20:33N 34°46' W 121°10'1312.9
2017-Mar-24 19:33N 34°34' W 121°03'1515.3
2017-Mar-24 18:33N 34°21' W 120°54'1717.4
2017-Mar-24 17:33N 34°05' W 120°44'1716.7
2017-Mar-24 16:33N 33°54' W 120°29'1917.2
2017-Mar-24 15:28N 33°46' W 120°09'1617.6
2017-Mar-24 14:33N 33°39' W 119°51'1221.3
2017-Mar-24 14:00N 33°30' W 119°42'819.1 320 / 81027.410.8 13.011.115.0
2017-Mar-24 13:33N 33°32' W 119°32'1817.7
2017-Mar-24 12:33N 33°24' W 119°13'1717.5
2017-Mar-24 11:33N 33°16' W 118°55'1717.3
2017-Mar-24 10:33N 33°08' W 118°36'1717.0
2017-Mar-24 09:33N 32°58' W 118°20'1717.2
2017-Mar-24 08:33N 32°47' W 118°04'1716.8
2017-Mar-24 07:33N 32°37' W 117°48'1918.7
2017-Mar-24 06:33N 32°21' W 117°36'203 9.8
2017-Mar-23 10:00N 30°30' W 120°54'11122.3 330 / 401022.510.8 15.014.116.0
2017-Mar-23 05:00N 30°06' W 123°00'3819.2 350 / 301021.810.8 15.014.116.0
2017-Mar-23 03:00N 29°54' W 123°42'17722.2 340 / 331025.310.8 15.014.116.0
2017-Mar-22 19:00N 29°12' W 127°00'6416.0 340 / 271023.210.8 17.015.318.0
2017-Mar-22 15:00N 29°00' W 128°12'26221.8 340 / 251025.010.8 17.015.318.0
2017-Mar-22 03:00N 27°54' W 133°00'16020.0 340 / 191023.810.8 18.513.220.0
2017-Mar-21 19:00N 27°12' W 135°54'8721.8 320 / 151021.010.8 19.011.821.0
2017-Mar-21 15:00N 26°54' W 137°30'7224.0 350 / 131023.910.8
2017-Mar-21 12:00N 26°36' W 138°48'12721.2 350 / 161022.910.8 19.211.622.0
2017-Mar-21 06:00N 26°06' W 141°06'25221.0 360 / 151018.910.8 19.513.423.0
2017-Mar-20 18:00N 25°00' W 145°36'3919.3 360 / 181017.410.8 20.519.724.0
2017-Mar-20 16:00N 24°54' W 146°18'   360 / 251020.910.8 20.520.524.0
Track history (hours):
 
Tides and Currents Weather Stations Pressure Air Temp Water Temp Dewpoint Dewpoint Depression Visibility Wind Speed Wind Dir Waves Ship Positions

Grand Princess

Operator: Princess Cruises

Last reported at 2017-Mar-30 13:33 UTC. Time now 2017-Mar-30 14:39 UTC.
Position N 31°48' W 116°44'.

Length 289.5 m; beam 36 m; draft 8.5 m.

Type: Ship. MMSI: 310327000.

Date/timePositionNaut miles runAvg speedWind from/ knotsBaromVisibWave heightAir tempDewpointWater temp
2017-Mar-30 13:33N 31°48' W 116°44'1110.7
2017-Mar-30 12:33N 31°44' W 116°55'10 9.7
2017-Mar-30 11:33N 31°40' W 117°06'10 9.7
2017-Mar-30 10:33N 31°38' W 117°17'10 9.9
2017-Mar-30 09:33N 31°38' W 117°29'9 9.4
2017-Mar-30 08:33N 31°38' W 117°40'5 5.4
2017-Mar-30 07:33N 31°43' W 117°41'9 9.2
2017-Mar-30 06:33N 31°51' W 117°36'10 9.7
2017-Mar-30 05:33N 32°00' W 117°32'9 9.0
2017-Mar-30 04:33N 32°09' W 117°30'10 9.5
2017-Mar-30 03:33N 32°18' W 117°26'1010.3
2017-Mar-30 02:33N 32°27' W 117°20'1010.4
2017-Mar-30 01:33N 32°36' W 117°14'7 7.3
2017-Mar-30 00:33N 32°43' W 117°11'0 0.3
2017-Mar-29 23:29N 32°43' W 117°10'0 0.0
2017-Mar-29 18:27N 32°43' W 117°10'0 0.0
2017-Mar-29 15:32N 32°43' W 117°10'0 0.0
2017-Mar-29 14:33N 32°43' W 117°10'6 6.0
2017-Mar-29 13:34N 32°38' W 117°14'1110.9
2017-Mar-29 12:34N 32°29' W 117°21'1110.6
2017-Mar-29 11:34N 32°25' W 117°32'1110.9
2017-Mar-29 10:33N 32°26' W 117°45'1211.6
2017-Mar-29 09:34N 32°37' W 117°49'1212.0
2017-Mar-29 08:34N 32°48' W 117°54'1212.0
2017-Mar-29 07:34N 32°60' W 117°58'1111.0
2017-Mar-29 06:34N 33°10' W 118°03'1111.2
2017-Mar-29 05:34N 33°21' W 118°07'1111.2
2017-Mar-29 04:33N 33°31' W 118°12'1110.9
2017-Mar-29 03:34N 33°42' W 118°11'3 2.9
2017-Mar-29 02:32N 33°45' W 118°11'0 0.0
2017-Mar-29 01:31N 33°45' W 118°11'0 0.0
2017-Mar-29 00:31N 33°45' W 118°11'0 0.0
2017-Mar-28 23:33N 33°45' W 118°11'0 0.0
2017-Mar-28 22:33N 33°45' W 118°11'0 0.0
2017-Mar-28 21:29N 33°45' W 118°11'0 0.0
2017-Mar-28 20:32N 33°45' W 118°11'0 0.0
2017-Mar-28 19:32N 33°45' W 118°11'0 0.0
2017-Mar-28 18:28N 33°45' W 118°11'0 0.0
2017-Mar-28 17:31N 33°45' W 118°11'0 0.0
2017-Mar-28 16:33N 33°45' W 118°11'0 0.0
2017-Mar-28 15:33N 33°45' W 118°11'0 0.0
2017-Mar-28 14:32N 33°45' W 118°11'2 1.6
2017-Mar-28 13:33N 33°43' W 118°11'8 8.1
2017-Mar-28 12:33N 33°36' W 118°16'1010.4
2017-Mar-28 11:33N 33°39' W 118°28'1110.7
2017-Mar-28 10:33N 33°44' W 118°40'9 9.4
2017-Mar-28 09:33N 33°39' W 118°50'1010.3
2017-Mar-28 08:33N 33°43' W 119°01'10 9.7
2017-Mar-28 07:33N 33°47' W 119°11'8 8.4
2017-Mar-28 06:33N 33°56' W 119°09'8 8.3
2017-Mar-28 05:33N 34°02' W 119°16'10 9.7
2017-Mar-28 04:33N 34°05' W 119°27'1110.1
2017-Mar-28 03:29N 34°08' W 119°40'9 9.5
2017-Mar-28 02:33N 34°15' W 119°46'9 8.6
2017-Mar-28 01:32N 34°23' W 119°41'0 0.0
2017-Mar-27 13:22N 34°23' W 119°41'910.5
2017-Mar-27 12:30N 34°15' W 119°48'11 9.6
2017-Mar-27 11:23N 34°13' W 120°00'1011.9
2017-Mar-27 10:30N 34°15' W 120°12'1211.9
2017-Mar-27 09:31N 34°18' W 120°26'1111.9
2017-Mar-27 08:33N 34°21' W 120°40'1110.8
2017-Mar-27 07:33N 34°24' W 120°52'1110.7
2017-Mar-27 06:33N 34°26' W 121°05'1110.7
2017-Mar-27 05:33N 34°28' W 121°18'1010.5
2017-Mar-27 04:33N 34°30' W 121°30'1110.6
2017-Mar-27 03:33N 34°32' W 121°43'1110.5
2017-Mar-27 02:33N 34°34' W 121°56'5 9.6
2017-Mar-27 02:00N 34°30' W 122°00'1021.7 300 / 91023.710.8 13.011.115.0
2017-Mar-27 01:33N 34°37' W 122°09'1110.9
2017-Mar-27 00:33N 34°38' W 122°22'67 8.4
2017-Mar-26 16:33N 35°33' W 123°08'1110.9
2017-Mar-26 15:33N 35°44' W 123°08'1110.9
2017-Mar-26 14:33N 35°55' W 123°08'2 3.4
2017-Mar-26 14:00N 35°54' W 123°06'1126.2 270 / 101022.710.8 13.010.114.0
2017-Mar-26 13:33N 36°05' W 123°08'3210.6
2017-Mar-26 10:33N 36°37' W 123°08'1010.0
2017-Mar-26 09:33N 36°47' W 123°08'1110.0
2017-Mar-26 08:30N 36°58' W 123°09'1010.6
2017-Mar-26 07:32N 37°08' W 123°09'1110.7
2017-Mar-26 06:28N 37°19' W 123°09'1010.6
2017-Mar-26 05:33N 37°29' W 123°09'1010.5
2017-Mar-26 04:33N 37°36' W 122°59'1010.4
2017-Mar-26 03:33N 37°42' W 122°49'1111.3
2017-Mar-26 02:34N 37°47' W 122°36'9 8.7
2017-Mar-26 01:30N 37°48' W 122°24'0 0.0
2017-Mar-26 00:32N 37°48' W 122°24'0 0.0
2017-Mar-25 23:32N 37°48' W 122°24'0 0.0
2017-Mar-25 22:32N 37°48' W 122°24'0 0.0
2017-Mar-25 21:31N 37°48' W 122°24'0 0.0
2017-Mar-25 20:31N 37°48' W 122°24'0 0.0
2017-Mar-25 19:33N 37°48' W 122°24'0 0.0
2017-Mar-25 18:33N 37°48' W 122°24'0 0.0
2017-Mar-25 17:32N 37°48' W 122°24'0 0.0
2017-Mar-25 16:32N 37°48' W 122°24'0 0.0
2017-Mar-25 15:31N 37°48' W 122°24'0 0.0
2017-Mar-25 14:31N 37°48' W 122°24'0 0.0
2017-Mar-25 13:34N 37°48' W 122°24'7 6.7
2017-Mar-25 12:34N 37°47' W 122°32'1110.5
2017-Mar-25 11:33N 37°39' W 122°40'1313.2
2017-Mar-25 10:34N 37°26' W 122°40'1312.8
2017-Mar-25 09:34N 37°13' W 122°37'1312.9
2017-Mar-25 08:33N 37°01' W 122°30'1313.0
2017-Mar-25 07:33N 36°50' W 122°23'1313.1
2017-Mar-25 06:33N 36°37' W 122°17'1212.3
2017-Mar-25 05:33N 36°26' W 122°10'1212.2
2017-Mar-25 04:33N 36°15' W 122°04'1312.5
2017-Mar-25 03:33N 36°04' W 121°58'1312.7
2017-Mar-25 02:33N 35°52' W 121°51'5 8.8
2017-Mar-25 02:00N 35°48' W 121°48'817.2 130 / 151025.4 5.4 13.012.413.0
2017-Mar-25 01:33N 35°41' W 121°45'1212.2
2017-Mar-25 00:33N 35°30' W 121°38'1212.2
2017-Mar-24 23:33N 35°19' W 121°32'1212.4
2017-Mar-24 22:33N 35°08' W 121°25'1312.6
2017-Mar-24 21:33N 34°57' W 121°17'1312.8
2017-Mar-24 20:33N 34°46' W 121°10'1312.9
2017-Mar-24 19:33N 34°34' W 121°03'1515.3
2017-Mar-24 18:33N 34°21' W 120°54'1717.4
2017-Mar-24 17:33N 34°05' W 120°44'1716.7
2017-Mar-24 16:33N 33°54' W 120°29'1917.2
2017-Mar-24 15:28N 33°46' W 120°09'1617.6
2017-Mar-24 14:33N 33°39' W 119°51'1221.3
2017-Mar-24 14:00N 33°30' W 119°42'819.1 320 / 81027.410.8 13.011.115.0
2017-Mar-24 13:33N 33°32' W 119°32'1817.7
2017-Mar-24 12:33N 33°24' W 119°13'1717.5
2017-Mar-24 11:33N 33°16' W 118°55'1717.3
2017-Mar-24 10:33N 33°08' W 118°36'1717.0
2017-Mar-24 09:33N 32°58' W 118°20'1717.2
2017-Mar-24 08:33N 32°47' W 118°04'1716.8
2017-Mar-24 07:33N 32°37' W 117°48'1918.7
2017-Mar-24 06:33N 32°21' W 117°36'203 9.8
2017-Mar-23 10:00N 30°30' W 120°54'11122.3 330 / 401022.510.8 15.014.116.0
2017-Mar-23 05:00N 30°06' W 123°00'3819.2 350 / 301021.810.8 15.014.116.0
2017-Mar-23 03:00N 29°54' W 123°42'17722.2 340 / 331025.310.8 15.014.116.0
2017-Mar-22 19:00N 29°12' W 127°00'6416.0 340 / 271023.210.8 17.015.318.0
2017-Mar-22 15:00N 29°00' W 128°12'26221.8 340 / 251025.010.8 17.015.318.0
2017-Mar-22 03:00N 27°54' W 133°00'16020.0 340 / 191023.810.8 18.513.220.0
2017-Mar-21 19:00N 27°12' W 135°54'8721.8 320 / 151021.010.8 19.011.821.0
2017-Mar-21 15:00N 26°54' W 137°30'7224.0 350 / 131023.910.8
2017-Mar-21 12:00N 26°36' W 138°48'12721.2 350 / 161022.910.8 19.211.622.0
2017-Mar-21 06:00N 26°06' W 141°06'25221.0 360 / 151018.910.8 19.513.423.0
2017-Mar-20 18:00N 25°00' W 145°36'3919.3 360 / 181017.410.8 20.519.724.0
2017-Mar-20 16:00N 24°54' W 146°18'   360 / 251020.910.8 20.520.524.0

Dump ship's entire track history